KCNM/CNM METAR and TAF weather

Enter ICAO airport designator
Station Type Date Time Source
KCNM METAR 2019/10/15 08:53 UTC NOAA

KCNM 150853Z AUTO VRB03KT 10SM CLR 21/13 A2996 RMK AO2 SLP091 T02110133 58001


Station Type Date Time Source
KCNM Decoded METAR 2019/10/15 08:53 UTC NOAA

CARLSBAD CAVERN CITY, NM, United States (KCNM) 32-20N 104-16W 985M
Oct 15, 2019 - 04:53 AM EDT / 2019.10.15 0853 UTC
Wind: Variable at 3 MPH (3 KT):0
Visibility: 10 mile(s):0
Sky conditions: clear
Temperature: 70.0 F (21.1 C)
Dew Point: 55.9 F (13.3 C)
Relative Humidity: 61%
Pressure (altimeter): 29.96 in. Hg (1014 hPa)
Pressure tendency: 0.00 inches (0.1 hPa) lower than three hours ago
ob: KCNM 150853Z AUTO VRB03KT 10SM CLR 21/13 A2996 RMK AO2 SLP091 T02110133 58001
cycle: 9

Station Type Date Time Source
KCNM TAF 2019/10/15 06:27 UTC NOAA

TAF KCNM 150524Z 1506/1606 25005KT P6SM FEW120 BKN200
FM151500 32008KT P6SM FEW100 SCT120
FM152100 35010KT P6SM FEW080 SCT200

Example: see airport list